createdAt,value
2022-12-17T00:03:23.046Z,975.14
2022-12-17T00:18:25.076Z,975.11
2022-12-17T00:33:26.991Z,974.91
2022-12-17T00:48:28.940Z,974.73
2022-12-17T01:03:30.860Z,974.57
2022-12-17T01:18:32.758Z,974.58
2022-12-17T01:33:34.934Z,974.4
2022-12-17T01:48:37.127Z,974.24
2022-12-17T02:03:39.296Z,974.17
2022-12-17T02:18:41.354Z,974.08
2022-12-17T02:33:43.280Z,973.78
2022-12-17T02:48:45.204Z,973.78
2022-12-17T03:03:50.231Z,973.78
2022-12-17T03:18:52.560Z,973.65
2022-12-17T03:33:58.302Z,973.54
2022-12-17T03:49:00.184Z,973.37
2022-12-17T04:04:02.059Z,973.23
2022-12-17T04:19:03.931Z,973.16
2022-12-17T04:34:05.891Z,973.12
2022-12-17T04:49:07.804Z,973.15
2022-12-17T05:04:09.708Z,973.04
2022-12-17T05:19:11.581Z,972.89
2022-12-17T05:34:13.507Z,972.84
2022-12-17T05:49:15.413Z,972.77
2022-12-17T06:04:17.389Z,972.76
2022-12-17T06:19:19.340Z,972.54
2022-12-17T06:34:21.237Z,972.41
2022-12-17T06:49:23.139Z,972.28
2022-12-17T07:04:25.014Z,972.02
2022-12-17T07:19:27.501Z,971.82
2022-12-17T07:34:29.708Z,971.88
2022-12-17T07:49:31.624Z,971.68
2022-12-17T08:04:33.507Z,971.46
2022-12-17T08:19:35.405Z,971.36
2022-12-17T08:34:37.330Z,971.03
2022-12-17T08:49:39.234Z,970.83
2022-12-17T09:04:41.209Z,970.85
2022-12-17T09:19:43.095Z,970.77
2022-12-17T09:34:44.983Z,970.6
2022-12-17T09:49:46.866Z,970.37
2022-12-17T10:04:48.791Z,970.29
2022-12-17T10:19:50.689Z,970.13
2022-12-17T10:34:52.503Z,970.02
2022-12-17T10:49:54.413Z,969.76
2022-12-17T11:04:56.289Z,969.52
2022-12-17T11:19:58.234Z,969.17
2022-12-17T11:35:00.121Z,969.02
2022-12-17T11:50:02.046Z,968.85
2022-12-17T12:05:04.005Z,968.62
2022-12-17T12:20:05.916Z,968.35
2022-12-17T12:35:07.771Z,968.3
2022-12-17T12:50:09.712Z,967.97
2022-12-17T13:05:11.611Z,967.82
2022-12-17T13:20:13.508Z,967.76
2022-12-17T13:35:15.391Z,967.4
2022-12-17T13:50:34.676Z,967.24
2022-12-17T14:05:37.398Z,967.15
2022-12-17T14:20:39.300Z,966.84
2022-12-17T14:35:41.185Z,966.73
2022-12-17T14:50:43.092Z,966.44
2022-12-17T15:05:44.984Z,966.43
2022-12-17T15:20:46.937Z,966.18
2022-12-17T15:35:48.847Z,966.01
2022-12-17T15:50:50.766Z,966.1
2022-12-17T16:05:52.707Z,965.84
2022-12-17T16:20:54.674Z,965.74
2022-12-17T16:35:56.564Z,965.62
2022-12-17T16:50:58.488Z,965.49
2022-12-17T17:06:00.382Z,965.67
2022-12-17T17:21:02.342Z,965.66
2022-12-17T17:36:04.322Z,965.62
2022-12-17T17:51:06.246Z,965.43
2022-12-17T18:06:08.137Z,965.54
2022-12-17T18:21:10.059Z,965.29
2022-12-17T18:36:11.964Z,965.02
2022-12-17T18:51:13.849Z,964.74
2022-12-17T19:06:15.759Z,964.42
2022-12-17T19:21:17.666Z,964.25
2022-12-17T19:36:22.571Z,964.03
2022-12-17T19:51:27.066Z,963.76
2022-12-17T20:06:28.947Z,963.56
2022-12-17T20:21:30.845Z,963.28
2022-12-17T20:36:32.778Z,963.27
2022-12-17T20:51:34.775Z,963.13
2022-12-17T21:06:36.663Z,963.08
2022-12-17T21:21:38.562Z,962.97
2022-12-17T21:36:40.503Z,962.94
2022-12-17T21:51:42.389Z,962.81
2022-12-17T22:06:46.606Z,962.7
2022-12-17T22:21:57.882Z,962.62
2022-12-17T22:39:53.828Z,962.68
2022-12-17T22:59:34.782Z,962.79
2022-12-17T23:14:36.601Z,962.69
2022-12-17T23:29:38.413Z,962.57
2022-12-17T23:44:40.234Z,962.56
2022-12-17T23:59:42.042Z,962.39
